sensor_id;sensor_type;location;lat;lon;timestamp;P1;durP1;ratioP1;P2;durP2;ratioP2
20721;SDS011;10522;52.198;9.890;2023-07-13T00:00:24;4.60;;;3.20;;
20721;SDS011;10522;52.198;9.890;2023-07-13T00:02:50;7.30;;;3.37;;
20721;SDS011;10522;52.198;9.890;2023-07-13T00:05:18;9.43;;;3.30;;
20721;SDS011;10522;52.198;9.890;2023-07-13T00:07:48;5.80;;;3.10;;
20721;SDS011;10522;52.198;9.890;2023-07-13T00:10:15;7.73;;;3.20;;
20721;SDS011;10522;52.198;9.890;2023-07-13T00:12:42;11.30;;;3.30;;
20721;SDS011;10522;52.198;9.890;2023-07-13T00:15:16;6.20;;;3.07;;
20721;SDS011;10522;52.198;9.890;2023-07-13T00:17:48;9.63;;;3.53;;
20721;SDS011;10522;52.198;9.890;2023-07-13T00:20:15;5.50;;;3.30;;
20721;SDS011;10522;52.198;9.890;2023-07-13T00:22:41;8.23;;;3.10;;
20721;SDS011;10522;52.198;9.890;2023-07-13T00:25:08;7.67;;;3.00;;
20721;SDS011;10522;52.198;9.890;2023-07-13T00:27:37;7.67;;;3.27;;
20721;SDS011;10522;52.198;9.890;2023-07-13T00:30:02;8.27;;;4.10;;
20721;SDS011;10522;52.198;9.890;2023-07-13T00:32:28;6.70;;;3.23;;
20721;SDS011;10522;52.198;9.890;2023-07-13T00:34:54;8.17;;;3.00;;
20721;SDS011;10522;52.198;9.890;2023-07-13T00:37:21;7.53;;;3.37;;
20721;SDS011;10522;52.198;9.890;2023-07-13T00:39:47;10.33;;;2.87;;
20721;SDS011;10522;52.198;9.890;2023-07-13T00:42:13;6.90;;;3.20;;
20721;SDS011;10522;52.198;9.890;2023-07-13T00:44:39;7.07;;;3.63;;
20721;SDS011;10522;52.198;9.890;2023-07-13T00:47:05;4.87;;;2.70;;
20721;SDS011;10522;52.198;9.890;2023-07-13T00:49:31;12.30;;;3.37;;
20721;SDS011;10522;52.198;9.890;2023-07-13T00:52:01;6.30;;;3.00;;
20721;SDS011;10522;52.198;9.890;2023-07-13T00:54:33;5.67;;;2.97;;
20721;SDS011;10522;52.198;9.890;2023-07-13T00:57:06;7.00;;;3.30;;
20721;SDS011;10522;52.198;9.890;2023-07-13T00:59:34;5.97;;;3.57;;
20721;SDS011;10522;52.198;9.890;2023-07-13T01:02:02;7.93;;;3.20;;
20721;SDS011;10522;52.198;9.890;2023-07-13T01:04:28;5.43;;;3.13;;
20721;SDS011;10522;52.198;9.890;2023-07-13T01:06:54;4.23;;;2.80;;
20721;SDS011;10522;52.198;9.890;2023-07-13T01:09:22;7.23;;;3.60;;
20721;SDS011;10522;52.198;9.890;2023-07-13T01:11:47;7.13;;;3.17;;
20721;SDS011;10522;52.198;9.890;2023-07-13T01:14:13;9.43;;;3.17;;
20721;SDS011;10522;52.198;9.890;2023-07-13T01:16:40;5.60;;;3.30;;
20721;SDS011;10522;52.198;9.890;2023-07-13T01:19:14;7.27;;;3.77;;
20721;SDS011;10522;52.198;9.890;2023-07-13T01:22:08;7.40;;;3.27;;
20721;SDS011;10522;52.198;9.890;2023-07-13T01:24:36;6.87;;;3.60;;
20721;SDS011;10522;52.198;9.890;2023-07-13T01:27:03;7.67;;;2.70;;
20721;SDS011;10522;52.198;9.890;2023-07-13T01:29:31;5.73;;;3.60;;
20721;SDS011;10522;52.198;9.890;2023-07-13T01:31:58;5.77;;;2.80;;
20721;SDS011;10522;52.198;9.890;2023-07-13T01:34:25;5.80;;;3.23;;
20721;SDS011;10522;52.198;9.890;2023-07-13T01:36:51;4.70;;;2.77;;
20721;SDS011;10522;52.198;9.890;2023-07-13T01:39:18;10.67;;;2.90;;
20721;SDS011;10522;52.198;9.890;2023-07-13T01:41:47;6.77;;;2.70;;
20721;SDS011;10522;52.198;9.890;2023-07-13T01:44:13;4.23;;;2.60;;
20721;SDS011;10522;52.198;9.890;2023-07-13T01:46:39;5.73;;;2.87;;
20721;SDS011;10522;52.198;9.890;2023-07-13T01:49:05;4.40;;;2.73;;
20721;SDS011;10522;52.198;9.890;2023-07-13T01:51:30;9.17;;;3.43;;
20721;SDS011;10522;52.198;9.890;2023-07-13T01:53:56;6.30;;;3.40;;
20721;SDS011;10522;52.198;9.890;2023-07-13T01:56:22;6.27;;;2.80;;
20721;SDS011;10522;52.198;9.890;2023-07-13T01:58:47;5.63;;;3.37;;
20721;SDS011;10522;52.198;9.890;2023-07-13T02:01:13;4.77;;;2.67;;
20721;SDS011;10522;52.198;9.890;2023-07-13T02:03:38;4.90;;;2.70;;
20721;SDS011;10522;52.198;9.890;2023-07-13T02:06:04;6.27;;;3.00;;
20721;SDS011;10522;52.198;9.890;2023-07-13T02:08:30;5.13;;;2.70;;
20721;SDS011;10522;52.198;9.890;2023-07-13T02:10:57;6.80;;;2.73;;
20721;SDS011;10522;52.198;9.890;2023-07-13T02:13:23;6.03;;;2.77;;
20721;SDS011;10522;52.198;9.890;2023-07-13T02:15:51;7.93;;;3.83;;
20721;SDS011;10522;52.198;9.890;2023-07-13T02:18:17;4.57;;;2.63;;
20721;SDS011;10522;52.198;9.890;2023-07-13T02:20:43;5.10;;;2.70;;
20721;SDS011;10522;52.198;9.890;2023-07-13T02:23:09;4.43;;;2.87;;
20721;SDS011;10522;52.198;9.890;2023-07-13T02:25:35;12.70;;;3.53;;
20721;SDS011;10522;52.198;9.890;2023-07-13T02:28:01;6.03;;;2.80;;
20721;SDS011;10522;52.198;9.890;2023-07-13T02:30:27;4.87;;;2.60;;
20721;SDS011;10522;52.198;9.890;2023-07-13T02:32:54;5.93;;;2.60;;
20721;SDS011;10522;52.198;9.890;2023-07-13T02:35:20;7.73;;;2.70;;
20721;SDS011;10522;52.198;9.890;2023-07-13T02:37:46;6.83;;;2.83;;
20721;SDS011;10522;52.198;9.890;2023-07-13T02:40:12;5.00;;;2.43;;
20721;SDS011;10522;52.198;9.890;2023-07-13T02:42:37;5.63;;;2.83;;
20721;SDS011;10522;52.198;9.890;2023-07-13T02:45:03;3.70;;;2.47;;
20721;SDS011;10522;52.198;9.890;2023-07-13T02:47:31;3.73;;;2.57;;
20721;SDS011;10522;52.198;9.890;2023-07-13T02:49:57;5.73;;;2.97;;
20721;SDS011;10522;52.198;9.890;2023-07-13T02:52:23;3.40;;;2.43;;
20721;SDS011;10522;52.198;9.890;2023-07-13T02:54:49;5.23;;;2.63;;
20721;SDS011;10522;52.198;9.890;2023-07-13T02:57:15;5.77;;;2.90;;
20721;SDS011;10522;52.198;9.890;2023-07-13T02:59:40;4.63;;;2.87;;
20721;SDS011;10522;52.198;9.890;2023-07-13T03:02:06;6.13;;;3.50;;
20721;SDS011;10522;52.198;9.890;2023-07-13T03:04:32;3.67;;;2.40;;
20721;SDS011;10522;52.198;9.890;2023-07-13T03:06:57;11.67;;;3.07;;
20721;SDS011;10522;52.198;9.890;2023-07-13T03:09:23;7.77;;;3.10;;
20721;SDS011;10522;52.198;9.890;2023-07-13T03:11:51;13.33;;;3.50;;
20721;SDS011;10522;52.198;9.890;2023-07-13T03:14:18;5.33;;;2.73;;
20721;SDS011;10522;52.198;9.890;2023-07-13T03:16:44;7.83;;;2.67;;
20721;SDS011;10522;52.198;9.890;2023-07-13T03:19:09;6.27;;;2.77;;
20721;SDS011;10522;52.198;9.890;2023-07-13T03:21:35;3.33;;;2.77;;
20721;SDS011;10522;52.198;9.890;2023-07-13T03:24:00;5.90;;;2.47;;
20721;SDS011;10522;52.198;9.890;2023-07-13T03:26:26;5.77;;;3.00;;
20721;SDS011;10522;52.198;9.890;2023-07-13T03:28:52;3.87;;;2.80;;
20721;SDS011;10522;52.198;9.890;2023-07-13T03:31:21;6.23;;;3.10;;
20721;SDS011;10522;52.198;9.890;2023-07-13T03:33:53;4.83;;;3.10;;
20721;SDS011;10522;52.198;9.890;2023-07-13T03:36:20;7.20;;;2.67;;
20721;SDS011;10522;52.198;9.890;2023-07-13T03:38:51;6.37;;;2.73;;
20721;SDS011;10522;52.198;9.890;2023-07-13T03:41:18;4.90;;;2.90;;
20721;SDS011;10522;52.198;9.890;2023-07-13T03:43:44;5.57;;;3.10;;
20721;SDS011;10522;52.198;9.890;2023-07-13T03:46:10;6.80;;;3.00;;
20721;SDS011;10522;52.198;9.890;2023-07-13T03:48:36;7.87;;;3.13;;
20721;SDS011;10522;52.198;9.890;2023-07-13T03:51:02;4.83;;;2.73;;
20721;SDS011;10522;52.198;9.890;2023-07-13T03:53:27;4.13;;;2.40;;
20721;SDS011;10522;52.198;9.890;2023-07-13T03:55:53;7.77;;;3.20;;
20721;SDS011;10522;52.198;9.890;2023-07-13T03:58:29;5.30;;;2.87;;
20721;SDS011;10522;52.198;9.890;2023-07-13T04:01:00;6.13;;;2.80;;
20721;SDS011;10522;52.198;9.890;2023-07-13T04:03:27;4.00;;;2.50;;
20721;SDS011;10522;52.198;9.890;2023-07-13T04:05:56;8.97;;;3.07;;
20721;SDS011;10522;52.198;9.890;2023-07-13T04:08:25;7.77;;;2.87;;
20721;SDS011;10522;52.198;9.890;2023-07-13T04:10:52;5.23;;;2.60;;
20721;SDS011;10522;52.198;9.890;2023-07-13T04:13:17;4.37;;;2.93;;
20721;SDS011;10522;52.198;9.890;2023-07-13T04:15:43;4.47;;;3.00;;
20721;SDS011;10522;52.198;9.890;2023-07-13T04:18:08;6.20;;;2.90;;
20721;SDS011;10522;52.198;9.890;2023-07-13T04:20:34;5.77;;;2.80;;
20721;SDS011;10522;52.198;9.890;2023-07-13T04:23:00;8.40;;;2.83;;
20721;SDS011;10522;52.198;9.890;2023-07-13T04:25:26;4.67;;;2.63;;
20721;SDS011;10522;52.198;9.890;2023-07-13T04:27:52;6.47;;;2.80;;
20721;SDS011;10522;52.198;9.890;2023-07-13T04:30:18;7.57;;;2.80;;
20721;SDS011;10522;52.198;9.890;2023-07-13T04:32:44;5.77;;;2.53;;
20721;SDS011;10522;52.198;9.890;2023-07-13T04:35:10;5.30;;;2.67;;
20721;SDS011;10522;52.198;9.890;2023-07-13T04:37:35;7.80;;;2.67;;
20721;SDS011;10522;52.198;9.890;2023-07-13T04:40:01;6.30;;;2.63;;
20721;SDS011;10522;52.198;9.890;2023-07-13T04:42:28;8.53;;;3.30;;
20721;SDS011;10522;52.198;9.890;2023-07-13T04:44:54;9.97;;;2.57;;
20721;SDS011;10522;52.198;9.890;2023-07-13T04:47:20;6.23;;;2.80;;
20721;SDS011;10522;52.198;9.890;2023-07-13T04:49:45;4.87;;;2.50;;
20721;SDS011;10522;52.198;9.890;2023-07-13T04:52:11;7.13;;;2.90;;
20721;SDS011;10522;52.198;9.890;2023-07-13T04:54:37;6.47;;;2.37;;
20721;SDS011;10522;52.198;9.890;2023-07-13T04:57:04;7.27;;;3.07;;
20721;SDS011;10522;52.198;9.890;2023-07-13T04:59:32;4.70;;;2.47;;
20721;SDS011;10522;52.198;9.890;2023-07-13T05:01:58;9.00;;;2.80;;
20721;SDS011;10522;52.198;9.890;2023-07-13T05:04:23;6.50;;;2.90;;
20721;SDS011;10522;52.198;9.890;2023-07-13T05:06:49;6.23;;;3.07;;
20721;SDS011;10522;52.198;9.890;2023-07-13T05:09:14;9.10;;;2.87;;
20721;SDS011;10522;52.198;9.890;2023-07-13T05:11:40;5.43;;;2.53;;
20721;SDS011;10522;52.198;9.890;2023-07-13T05:14:05;10.23;;;3.33;;
20721;SDS011;10522;52.198;9.890;2023-07-13T05:16:31;10.57;;;3.27;;
20721;SDS011;10522;52.198;9.890;2023-07-13T05:18:57;7.50;;;2.90;;
20721;SDS011;10522;52.198;9.890;2023-07-13T05:21:23;5.33;;;2.73;;
20721;SDS011;10522;52.198;9.890;2023-07-13T05:23:49;9.03;;;2.90;;
20721;SDS011;10522;52.198;9.890;2023-07-13T05:26:15;5.43;;;2.60;;
20721;SDS011;10522;52.198;9.890;2023-07-13T05:28:40;5.30;;;2.67;;
20721;SDS011;10522;52.198;9.890;2023-07-13T05:31:07;8.10;;;2.77;;
20721;SDS011;10522;52.198;9.890;2023-07-13T05:33:34;8.07;;;2.90;;
20721;SDS011;10522;52.198;9.890;2023-07-13T05:36:00;5.87;;;3.23;;
20721;SDS011;10522;52.198;9.890;2023-07-13T05:38:26;6.63;;;2.80;;
20721;SDS011;10522;52.198;9.890;2023-07-13T05:40:53;7.37;;;3.70;;
20721;SDS011;10522;52.198;9.890;2023-07-13T05:43:20;10.17;;;2.73;;
20721;SDS011;10522;52.198;9.890;2023-07-13T05:45:46;6.67;;;2.40;;
20721;SDS011;10522;52.198;9.890;2023-07-13T05:48:12;7.77;;;3.20;;
20721;SDS011;10522;52.198;9.890;2023-07-13T05:50:37;8.70;;;3.10;;
20721;SDS011;10522;52.198;9.890;2023-07-13T05:53:03;7.77;;;2.67;;
20721;SDS011;10522;52.198;9.890;2023-07-13T05:55:30;8.63;;;3.00;;
20721;SDS011;10522;52.198;9.890;2023-07-13T05:57:56;6.73;;;2.80;;
20721;SDS011;10522;52.198;9.890;2023-07-13T06:00:23;8.00;;;3.10;;
20721;SDS011;10522;52.198;9.890;2023-07-13T06:02:49;5.93;;;2.50;;
20721;SDS011;10522;52.198;9.890;2023-07-13T06:05:15;9.63;;;2.60;;
20721;SDS011;10522;52.198;9.890;2023-07-13T06:07:41;5.67;;;2.70;;
20721;SDS011;10522;52.198;9.890;2023-07-13T06:10:07;7.13;;;3.00;;
20721;SDS011;10522;52.198;9.890;2023-07-13T06:12:33;6.30;;;2.63;;
20721;SDS011;10522;52.198;9.890;2023-07-13T06:14:58;9.73;;;2.97;;
20721;SDS011;10522;52.198;9.890;2023-07-13T06:17:24;5.17;;;3.00;;
20721;SDS011;10522;52.198;9.890;2023-07-13T06:19:49;8.57;;;2.60;;
20721;SDS011;10522;52.198;9.890;2023-07-13T06:22:15;10.97;;;3.07;;
20721;SDS011;10522;52.198;9.890;2023-07-13T06:24:41;12.60;;;3.03;;
20721;SDS011;10522;52.198;9.890;2023-07-13T06:27:06;5.00;;;2.60;;
20721;SDS011;10522;52.198;9.890;2023-07-13T06:29:32;7.23;;;2.77;;
20721;SDS011;10522;52.198;9.890;2023-07-13T06:31:58;9.57;;;3.00;;
20721;SDS011;10522;52.198;9.890;2023-07-13T06:34:23;4.83;;;2.63;;
20721;SDS011;10522;52.198;9.890;2023-07-13T06:36:49;8.60;;;2.53;;
20721;SDS011;10522;52.198;9.890;2023-07-13T06:39:14;8.60;;;2.53;;
20721;SDS011;10522;52.198;9.890;2023-07-13T06:41:40;8.13;;;2.50;;
20721;SDS011;10522;52.198;9.890;2023-07-13T06:44:06;10.30;;;2.60;;
20721;SDS011;10522;52.198;9.890;2023-07-13T06:46:31;7.37;;;2.43;;
20721;SDS011;10522;52.198;9.890;2023-07-13T06:48:57;5.67;;;2.30;;
20721;SDS011;10522;52.198;9.890;2023-07-13T06:51:23;7.63;;;3.23;;
20721;SDS011;10522;52.198;9.890;2023-07-13T06:53:48;5.43;;;2.43;;
20721;SDS011;10522;52.198;9.890;2023-07-13T06:56:15;7.80;;;3.17;;
20721;SDS011;10522;52.198;9.890;2023-07-13T06:58:41;11.33;;;2.40;;
20721;SDS011;10522;52.198;9.890;2023-07-13T07:01:06;7.60;;;2.47;;
20721;SDS011;10522;52.198;9.890;2023-07-13T07:03:32;6.17;;;2.97;;
20721;SDS011;10522;52.198;9.890;2023-07-13T07:08:53;6.97;;;2.20;;
20721;SDS011;10522;52.198;9.890;2023-07-13T07:11:19;5.03;;;2.20;;
20721;SDS011;10522;52.198;9.890;2023-07-13T07:13:47;9.73;;;2.00;;
20721;SDS011;10522;52.198;9.890;2023-07-13T07:16:13;8.13;;;3.60;;
20721;SDS011;10522;52.198;9.890;2023-07-13T07:18:39;10.03;;;2.50;;
20721;SDS011;10522;52.198;9.890;2023-07-13T07:21:05;3.17;;;1.73;;
20721;SDS011;10522;52.198;9.890;2023-07-13T07:23:30;6.70;;;2.23;;
20721;SDS011;10522;52.198;9.890;2023-07-13T07:25:56;8.63;;;2.13;;
20721;SDS011;10522;52.198;9.890;2023-07-13T07:28:22;6.73;;;3.13;;
20721;SDS011;10522;52.198;9.890;2023-07-13T07:30:47;5.43;;;2.17;;
20721;SDS011;10522;52.198;9.890;2023-07-13T07:33:14;7.00;;;2.50;;
20721;SDS011;10522;52.198;9.890;2023-07-13T07:35:41;7.27;;;2.07;;
20721;SDS011;10522;52.198;9.890;2023-07-13T07:38:07;5.23;;;2.07;;
20721;SDS011;10522;52.198;9.890;2023-07-13T07:40:36;9.37;;;2.03;;
20721;SDS011;10522;52.198;9.890;2023-07-13T07:43:02;4.83;;;1.50;;
20721;SDS011;10522;52.198;9.890;2023-07-13T07:45:28;4.67;;;2.00;;
20721;SDS011;10522;52.198;9.890;2023-07-13T07:47:54;6.43;;;1.90;;
20721;SDS011;10522;52.198;9.890;2023-07-13T07:50:23;4.93;;;2.37;;
20721;SDS011;10522;52.198;9.890;2023-07-13T07:52:50;6.77;;;1.77;;
20721;SDS011;10522;52.198;9.890;2023-07-13T07:55:15;10.03;;;2.17;;
20721;SDS011;10522;52.198;9.890;2023-07-13T07:57:41;5.50;;;1.80;;
20721;SDS011;10522;52.198;9.890;2023-07-13T08:00:07;8.13;;;2.70;;
20721;SDS011;10522;52.198;9.890;2023-07-13T08:02:32;6.23;;;2.03;;
20721;SDS011;10522;52.198;9.890;2023-07-13T08:04:58;4.03;;;1.50;;
20721;SDS011;10522;52.198;9.890;2023-07-13T08:07:24;4.33;;;1.87;;
20721;SDS011;10522;52.198;9.890;2023-07-13T08:09:52;6.10;;;2.07;;
20721;SDS011;10522;52.198;9.890;2023-07-13T08:12:17;4.80;;;1.93;;
20721;SDS011;10522;52.198;9.890;2023-07-13T08:14:43;10.00;;;2.00;;
20721;SDS011;10522;52.198;9.890;2023-07-13T08:17:09;4.47;;;1.77;;
20721;SDS011;10522;52.198;9.890;2023-07-13T08:19:34;5.63;;;2.20;;
20721;SDS011;10522;52.198;9.890;2023-07-13T08:22:00;6.17;;;1.70;;
20721;SDS011;10522;52.198;9.890;2023-07-13T08:24:25;9.70;;;1.90;;
20721;SDS011;10522;52.198;9.890;2023-07-13T08:26:51;4.67;;;1.80;;
20721;SDS011;10522;52.198;9.890;2023-07-13T08:29:17;5.00;;;2.20;;
20721;SDS011;10522;52.198;9.890;2023-07-13T08:31:43;3.73;;;1.93;;
20721;SDS011;10522;52.198;9.890;2023-07-13T08:34:09;6.20;;;1.93;;
20721;SDS011;10522;52.198;9.890;2023-07-13T08:36:35;9.90;;;1.90;;
20721;SDS011;10522;52.198;9.890;2023-07-13T08:39:01;5.90;;;1.80;;
20721;SDS011;10522;52.198;9.890;2023-07-13T08:41:27;8.27;;;1.80;;
20721;SDS011;10522;52.198;9.890;2023-07-13T08:43:57;5.03;;;1.93;;
20721;SDS011;10522;52.198;9.890;2023-07-13T08:46:27;3.83;;;2.50;;
20721;SDS011;10522;52.198;9.890;2023-07-13T08:49:01;4.33;;;1.83;;
20721;SDS011;10522;52.198;9.890;2023-07-13T08:51:40;4.10;;;1.67;;
20721;SDS011;10522;52.198;9.890;2023-07-13T08:54:20;7.77;;;1.60;;
20721;SDS011;10522;52.198;9.890;2023-07-13T08:56:57;8.13;;;2.40;;
20721;SDS011;10522;52.198;9.890;2023-07-13T08:59:27;5.43;;;1.90;;
20721;SDS011;10522;52.198;9.890;2023-07-13T09:04:29;6.73;;;2.10;;
20721;SDS011;10522;52.198;9.890;2023-07-13T09:07:05;2.93;;;1.50;;
20721;SDS011;10522;52.198;9.890;2023-07-13T09:09:38;7.37;;;2.33;;
20721;SDS011;10522;52.198;9.890;2023-07-13T09:17:51;7.17;;;2.27;;
20721;SDS011;10522;52.198;9.890;2023-07-13T09:20:28;7.23;;;2.00;;
20721;SDS011;10522;52.198;9.890;2023-07-13T09:23:12;7.93;;;2.30;;
20721;SDS011;10522;52.198;9.890;2023-07-13T09:25:45;6.80;;;2.87;;
20721;SDS011;10522;52.198;9.890;2023-07-13T09:33:19;5.63;;;2.37;;
20721;SDS011;10522;52.198;9.890;2023-07-13T09:35:46;9.20;;;2.37;;
20721;SDS011;10522;52.198;9.890;2023-07-13T09:40:59;9.13;;;2.80;;
20721;SDS011;10522;52.198;9.890;2023-07-13T09:46:35;7.93;;;2.30;;
20721;SDS011;10522;52.198;9.890;2023-07-13T09:49:00;5.83;;;2.80;;
20721;SDS011;10522;52.198;9.890;2023-07-13T09:51:26;6.27;;;2.30;;
20721;SDS011;10522;52.198;9.890;2023-07-13T09:53:52;7.57;;;2.60;;
20721;SDS011;10522;52.198;9.890;2023-07-13T09:56:21;7.23;;;2.60;;
20721;SDS011;10522;52.198;9.890;2023-07-13T09:58:51;7.07;;;2.80;;
20721;SDS011;10522;52.198;9.890;2023-07-13T10:01:30;6.63;;;2.13;;
20721;SDS011;10522;52.198;9.890;2023-07-13T10:03:59;3.90;;;1.90;;
20721;SDS011;10522;52.198;9.890;2023-07-13T10:06:25;8.83;;;2.43;;
20721;SDS011;10522;52.198;9.890;2023-07-13T10:08:51;8.37;;;2.10;;
20721;SDS011;10522;52.198;9.890;2023-07-13T10:11:22;7.83;;;2.43;;
20721;SDS011;10522;52.198;9.890;2023-07-13T10:13:52;6.07;;;2.20;;
20721;SDS011;10522;52.198;9.890;2023-07-13T10:16:26;6.17;;;2.23;;
20721;SDS011;10522;52.198;9.890;2023-07-13T10:18:58;5.57;;;2.20;;
20721;SDS011;10522;52.198;9.890;2023-07-13T10:21:38;5.00;;;1.87;;
20721;SDS011;10522;52.198;9.890;2023-07-13T10:24:19;6.20;;;2.23;;
20721;SDS011;10522;52.198;9.890;2023-07-13T10:27:12;5.50;;;2.10;;
20721;SDS011;10522;52.198;9.890;2023-07-13T10:30:04;5.77;;;2.10;;
20721;SDS011;10522;52.198;9.890;2023-07-13T10:32:47;6.63;;;2.50;;
20721;SDS011;10522;52.198;9.890;2023-07-13T10:35:15;4.90;;;2.10;;
20721;SDS011;10522;52.198;9.890;2023-07-13T10:37:53;8.37;;;2.10;;
20721;SDS011;10522;52.198;9.890;2023-07-13T10:43:25;6.07;;;2.20;;
20721;SDS011;10522;52.198;9.890;2023-07-13T10:45:59;5.80;;;2.27;;
20721;SDS011;10522;52.198;9.890;2023-07-13T10:48:27;6.80;;;2.07;;
20721;SDS011;10522;52.198;9.890;2023-07-13T10:50:54;6.40;;;2.07;;
20721;SDS011;10522;52.198;9.890;2023-07-13T10:53:27;6.83;;;2.10;;
20721;SDS011;10522;52.198;9.890;2023-07-13T10:55:56;4.97;;;1.67;;
20721;SDS011;10522;52.198;9.890;2023-07-13T11:03:38;5.63;;;2.20;;
20721;SDS011;10522;52.198;9.890;2023-07-13T11:08:55;5.33;;;2.17;;
20721;SDS011;10522;52.198;9.890;2023-07-13T11:11:42;8.87;;;2.10;;
20721;SDS011;10522;52.198;9.890;2023-07-13T11:17:23;5.83;;;2.60;;
20721;SDS011;10522;52.198;9.890;2023-07-13T11:20:08;7.73;;;1.80;;
20721;SDS011;10522;52.198;9.890;2023-07-13T11:28:05;4.23;;;2.07;;
20721;SDS011;10522;52.198;9.890;2023-07-13T11:38:37;4.87;;;2.37;;
20721;SDS011;10522;52.198;9.890;2023-07-13T11:43:54;4.63;;;1.93;;
20721;SDS011;10522;52.198;9.890;2023-07-13T11:46:32;9.63;;;2.57;;
20721;SDS011;10522;52.198;9.890;2023-07-13T11:48:58;5.07;;;2.33;;
20721;SDS011;10522;52.198;9.890;2023-07-13T11:51:28;6.17;;;2.30;;
20721;SDS011;10522;52.198;9.890;2023-07-13T11:53:56;4.83;;;2.10;;
20721;SDS011;10522;52.198;9.890;2023-07-13T11:56:26;3.77;;;2.17;;
20721;SDS011;10522;52.198;9.890;2023-07-13T11:58:52;4.73;;;2.40;;
20721;SDS011;10522;52.198;9.890;2023-07-13T12:01:22;5.43;;;2.33;;
20721;SDS011;10522;52.198;9.890;2023-07-13T12:03:50;8.73;;;2.73;;
20721;SDS011;10522;52.198;9.890;2023-07-13T12:06:28;4.23;;;2.20;;
20721;SDS011;10522;52.198;9.890;2023-07-13T12:08:58;5.30;;;2.13;;
20721;SDS011;10522;52.198;9.890;2023-07-13T12:11:25;4.17;;;2.00;;
20721;SDS011;10522;52.198;9.890;2023-07-13T12:13:51;5.33;;;2.17;;
20721;SDS011;10522;52.198;9.890;2023-07-13T12:16:28;3.20;;;2.00;;
20721;SDS011;10522;52.198;9.890;2023-07-13T12:18:58;6.73;;;1.93;;
20721;SDS011;10522;52.198;9.890;2023-07-13T12:21:30;4.87;;;2.40;;
20721;SDS011;10522;52.198;9.890;2023-07-13T12:23:57;9.33;;;2.30;;
20721;SDS011;10522;52.198;9.890;2023-07-13T12:26:23;5.33;;;2.20;;
20721;SDS011;10522;52.198;9.890;2023-07-13T12:28:53;7.50;;;2.33;;
20721;SDS011;10522;52.198;9.890;2023-07-13T12:36:31;5.80;;;2.50;;
20721;SDS011;10522;52.198;9.890;2023-07-13T12:39:00;4.80;;;2.33;;
20721;SDS011;10522;52.198;9.890;2023-07-13T12:42:20;5.00;;;2.00;;
20721;SDS011;10522;52.198;9.890;2023-07-13T12:44:52;8.63;;;2.50;;
20721;SDS011;10522;52.198;9.890;2023-07-13T12:47:21;7.87;;;2.60;;
20721;SDS011;10522;52.198;9.890;2023-07-13T12:49:48;4.00;;;2.10;;
20721;SDS011;10522;52.198;9.890;2023-07-13T12:52:20;6.13;;;2.30;;
20721;SDS011;10522;52.198;9.890;2023-07-13T12:54:58;8.57;;;2.77;;
20721;SDS011;10522;52.198;9.890;2023-07-13T12:57:40;5.13;;;2.20;;
20721;SDS011;10522;52.198;9.890;2023-07-13T13:03:06;5.00;;;2.70;;
20721;SDS011;10522;52.198;9.890;2023-07-13T13:05:45;4.80;;;2.53;;
20721;SDS011;10522;52.198;9.890;2023-07-13T13:08:11;4.07;;;2.00;;
20721;SDS011;10522;52.198;9.890;2023-07-13T13:10:37;6.00;;;2.70;;
20721;SDS011;10522;52.198;9.890;2023-07-13T13:13:02;3.70;;;2.10;;
20721;SDS011;10522;52.198;9.890;2023-07-13T13:15:28;5.90;;;2.80;;
20721;SDS011;10522;52.198;9.890;2023-07-13T13:17:54;5.90;;;2.50;;
20721;SDS011;10522;52.198;9.890;2023-07-13T13:20:21;6.60;;;3.00;;
20721;SDS011;10522;52.198;9.890;2023-07-13T13:22:48;7.23;;;2.67;;
20721;SDS011;10522;52.198;9.890;2023-07-13T13:25:14;3.90;;;2.53;;
20721;SDS011;10522;52.198;9.890;2023-07-13T13:27:41;3.47;;;2.40;;
20721;SDS011;10522;52.198;9.890;2023-07-13T13:30:11;3.27;;;2.53;;
20721;SDS011;10522;52.198;9.890;2023-07-13T13:32:39;3.60;;;2.43;;
20721;SDS011;10522;52.198;9.890;2023-07-13T13:35:11;4.83;;;2.60;;
20721;SDS011;10522;52.198;9.890;2023-07-13T13:37:41;7.90;;;2.80;;
20721;SDS011;10522;52.198;9.890;2023-07-13T13:40:20;5.17;;;2.90;;
20721;SDS011;10522;52.198;9.890;2023-07-13T13:42:51;6.30;;;2.70;;
20721;SDS011;10522;52.198;9.890;2023-07-13T13:45:19;7.57;;;3.23;;
20721;SDS011;10522;52.198;9.890;2023-07-13T13:47:46;9.80;;;2.60;;
20721;SDS011;10522;52.198;9.890;2023-07-13T13:52:40;12.57;;;2.80;;
20721;SDS011;10522;52.198;9.890;2023-07-13T13:55:17;8.60;;;2.77;;
20721;SDS011;10522;52.198;9.890;2023-07-13T13:57:47;4.07;;;2.43;;
20721;SDS011;10522;52.198;9.890;2023-07-13T14:00:14;8.33;;;2.53;;
20721;SDS011;10522;52.198;9.890;2023-07-13T14:02:42;4.97;;;2.77;;
20721;SDS011;10522;52.198;9.890;2023-07-13T14:05:13;6.33;;;2.60;;
20721;SDS011;10522;52.198;9.890;2023-07-13T14:07:40;8.37;;;3.47;;
20721;SDS011;10522;52.198;9.890;2023-07-13T14:10:13;4.60;;;2.47;;
20721;SDS011;10522;52.198;9.890;2023-07-13T14:12:41;4.20;;;2.90;;
20721;SDS011;10522;52.198;9.890;2023-07-13T14:15:21;7.03;;;1.97;;
20721;SDS011;10522;52.198;9.890;2023-07-13T14:17:51;5.13;;;2.20;;
20721;SDS011;10522;52.198;9.890;2023-07-13T14:20:19;8.67;;;2.30;;
20721;SDS011;10522;52.198;9.890;2023-07-13T14:22:47;2.83;;;2.00;;
20721;SDS011;10522;52.198;9.890;2023-07-13T14:25:15;6.30;;;2.30;;
20721;SDS011;10522;52.198;9.890;2023-07-13T14:27:42;4.00;;;2.03;;
20721;SDS011;10522;52.198;9.890;2023-07-13T14:30:12;5.07;;;2.27;;
20721;SDS011;10522;52.198;9.890;2023-07-13T14:32:39;9.83;;;3.20;;
20721;SDS011;10522;52.198;9.890;2023-07-13T14:35:05;4.80;;;2.50;;
20721;SDS011;10522;52.198;9.890;2023-07-13T14:37:32;9.00;;;2.83;;
20721;SDS011;10522;52.198;9.890;2023-07-13T14:39:59;4.93;;;2.70;;
20721;SDS011;10522;52.198;9.890;2023-07-13T14:42:25;9.17;;;3.63;;
20721;SDS011;10522;52.198;9.890;2023-07-13T14:44:50;4.23;;;2.83;;
20721;SDS011;10522;52.198;9.890;2023-07-13T14:47:16;4.77;;;2.53;;
20721;SDS011;10522;52.198;9.890;2023-07-13T14:49:43;11.33;;;3.30;;
20721;SDS011;10522;52.198;9.890;2023-07-13T14:52:20;6.93;;;2.87;;
20721;SDS011;10522;52.198;9.890;2023-07-13T14:54:47;4.30;;;2.57;;
20721;SDS011;10522;52.198;9.890;2023-07-13T14:57:13;5.03;;;2.50;;
20721;SDS011;10522;52.198;9.890;2023-07-13T14:59:41;4.33;;;2.10;;
20721;SDS011;10522;52.198;9.890;2023-07-13T15:02:34;6.13;;;2.37;;
20721;SDS011;10522;52.198;9.890;2023-07-13T15:05:05;3.57;;;2.20;;
20721;SDS011;10522;52.198;9.890;2023-07-13T15:07:41;4.87;;;2.83;;
20721;SDS011;10522;52.198;9.890;2023-07-13T15:10:29;5.93;;;2.37;;
20721;SDS011;10522;52.198;9.890;2023-07-13T15:13:01;4.03;;;1.57;;
20721;SDS011;10522;52.198;9.890;2023-07-13T15:15:39;5.17;;;1.63;;
20721;SDS011;10522;52.198;9.890;2023-07-13T15:18:11;2.30;;;1.60;;
20721;SDS011;10522;52.198;9.890;2023-07-13T15:20:38;4.40;;;2.40;;
20721;SDS011;10522;52.198;9.890;2023-07-13T15:23:04;3.60;;;2.13;;
20721;SDS011;10522;52.198;9.890;2023-07-13T15:25:31;3.70;;;2.07;;
20721;SDS011;10522;52.198;9.890;2023-07-13T15:27:58;3.87;;;2.13;;
20721;SDS011;10522;52.198;9.890;2023-07-13T15:30:25;4.80;;;2.00;;
20721;SDS011;10522;52.198;9.890;2023-07-13T15:32:54;1.93;;;1.63;;
20721;SDS011;10522;52.198;9.890;2023-07-13T15:35:24;2.30;;;1.97;;
20721;SDS011;10522;52.198;9.890;2023-07-13T15:37:51;3.23;;;1.87;;
20721;SDS011;10522;52.198;9.890;2023-07-13T15:40:17;2.93;;;1.90;;
20721;SDS011;10522;52.198;9.890;2023-07-13T15:42:44;5.90;;;2.20;;
20721;SDS011;10522;52.198;9.890;2023-07-13T15:45:14;6.17;;;2.33;;
20721;SDS011;10522;52.198;9.890;2023-07-13T15:47:45;2.80;;;1.90;;
20721;SDS011;10522;52.198;9.890;2023-07-13T15:50:12;3.17;;;2.10;;
20721;SDS011;10522;52.198;9.890;2023-07-13T15:52:42;7.67;;;1.97;;
20721;SDS011;10522;52.198;9.890;2023-07-13T15:55:11;2.60;;;2.10;;
20721;SDS011;10522;52.198;9.890;2023-07-13T15:57:38;2.83;;;2.20;;